createdAt,value
2018-03-27T00:01:43.317Z,188.47
2018-03-27T00:04:11.832Z,168.47
2018-03-27T00:06:40.349Z,175.97
2018-03-27T00:09:08.805Z,150.33
2018-03-27T00:11:37.250Z,167.90
2018-03-27T00:14:05.716Z,198.60
2018-03-27T00:16:34.175Z,158.90
2018-03-27T00:19:02.656Z,159.23
2018-03-27T00:21:31.102Z,162.23
2018-03-27T00:23:59.588Z,150.90
2018-03-27T00:26:28.058Z,130.53
2018-03-27T00:29:08.408Z,114.47
2018-03-27T00:31:54.672Z,114.93
2018-03-27T00:34:40.981Z,134.53
2018-03-27T00:37:27.323Z,117.77
2018-03-27T00:40:13.560Z,124.07
2018-03-27T00:42:53.649Z,147.97
2018-03-27T00:45:21.914Z,139.17
2018-03-27T00:47:50.135Z,146.50
2018-03-27T00:50:18.368Z,128.53
2018-03-27T00:52:46.803Z,162.23
2018-03-27T00:55:15.273Z,142.83
2018-03-27T00:57:43.724Z,142.00
2018-03-27T01:00:12.266Z,169.67
2018-03-27T01:02:40.780Z,153.47
2018-03-27T01:05:10.126Z,133.30
2018-03-27T01:07:38.553Z,134.23
2018-03-27T01:10:07.082Z,166.40
2018-03-27T01:12:35.551Z,163.53
2018-03-27T01:15:04.049Z,144.37
2018-03-27T01:17:32.573Z,149.93
2018-03-27T01:20:01.107Z,157.20
2018-03-27T01:22:29.532Z,144.27
2018-03-27T01:24:58.172Z,126.23
2018-03-27T01:27:26.732Z,113.20
2018-03-27T01:29:55.354Z,132.93
2018-03-27T01:32:23.784Z,127.27
2018-03-27T01:34:52.440Z,121.23
2018-03-27T01:37:20.917Z,115.83
2018-03-27T01:39:49.353Z,77.27
2018-03-27T01:42:18.263Z,97.13
2018-03-27T01:44:46.733Z,106.37
2018-03-27T01:47:15.140Z,113.67
2018-03-27T01:49:43.912Z,106.63
2018-03-27T01:52:12.321Z,123.90
2018-03-27T01:54:40.755Z,132.13
2018-03-27T01:57:09.484Z,121.77
2018-03-27T01:59:37.953Z,142.33
2018-03-27T02:02:06.406Z,128.00
2018-03-27T02:04:35.141Z,124.33
2018-03-27T02:07:03.598Z,124.23
2018-03-27T02:09:31.998Z,110.20
2018-03-27T02:12:05.901Z,113.97
2018-03-27T02:14:39.954Z,114.77
2018-03-27T02:17:13.916Z,122.37
2018-03-27T02:19:47.935Z,127.03
2018-03-27T02:22:16.380Z,59.97
2018-03-27T02:24:44.818Z,82.20
2018-03-27T02:27:13.244Z,133.67
2018-03-27T02:29:41.856Z,112.87
2018-03-27T02:32:10.472Z,129.10
2018-03-27T02:34:38.901Z,139.50
2018-03-27T02:37:07.362Z,138.43
2018-03-27T02:39:35.917Z,121.70
2018-03-27T02:42:04.414Z,130.00
2018-03-27T02:44:32.895Z,124.87
2018-03-27T02:47:01.333Z,123.53
2018-03-27T02:49:29.897Z,63.93
2018-03-27T02:51:58.421Z,38.63
2018-03-27T02:54:26.854Z,52.50
2018-03-27T02:56:55.329Z,39.07
2018-03-27T02:59:23.789Z,43.20
2018-03-27T03:01:52.300Z,51.50
2018-03-27T03:04:20.773Z,48.27
2018-03-27T03:06:49.291Z,39.43
2018-03-27T03:09:17.713Z,52.47
2018-03-27T03:11:46.221Z,50.10
2018-03-27T03:14:14.671Z,42.83
2018-03-27T03:16:43.169Z,43.93
2018-03-27T03:19:11.648Z,42.13
2018-03-27T03:21:40.096Z,38.07
2018-03-27T03:24:08.568Z,48.77
2018-03-27T03:26:37.081Z,48.40
2018-03-27T03:29:05.580Z,49.53
2018-03-27T03:31:34.026Z,53.77
2018-03-27T03:34:02.521Z,52.00
2018-03-27T03:36:30.988Z,45.57
2018-03-27T03:38:59.440Z,42.53
2018-03-27T03:41:27.937Z,53.53
2018-03-27T03:43:56.831Z,48.30
2018-03-27T03:46:25.323Z,56.40
2018-03-27T03:48:53.765Z,52.33
2018-03-27T03:51:22.239Z,36.10
2018-03-27T03:53:50.924Z,49.37
2018-03-27T03:56:19.415Z,37.77
2018-03-27T03:58:47.828Z,36.00
2018-03-27T04:01:16.329Z,28.43
2018-03-27T04:03:44.880Z,36.03
2018-03-27T04:06:13.309Z,48.77
2018-03-27T04:08:41.773Z,49.00
2018-03-27T04:11:10.232Z,47.87
2018-03-27T04:13:38.676Z,46.80
2018-03-27T04:16:07.186Z,56.17
2018-03-27T04:18:35.695Z,56.40
2018-03-27T04:21:04.110Z,48.60
2018-03-27T04:23:32.556Z,48.67
2018-03-27T04:26:01.005Z,40.13
2018-03-27T04:28:29.476Z,32.00
2018-03-27T04:30:57.884Z,31.23
2018-03-27T04:33:26.370Z,27.87
2018-03-27T04:35:54.849Z,23.50
2018-03-27T04:38:23.371Z,24.50
2018-03-27T04:40:51.821Z,16.70
2018-03-27T04:43:20.261Z,19.83
2018-03-27T04:45:48.712Z,16.10
2018-03-27T04:48:17.164Z,16.27
2018-03-27T04:50:45.799Z,20.10
2018-03-27T04:53:14.305Z,17.00
2018-03-27T04:55:42.760Z,15.63
2018-03-27T04:58:11.231Z,16.50
2018-03-27T05:00:39.662Z,20.07
2018-03-27T05:03:08.138Z,26.00
2018-03-27T05:05:36.646Z,19.23
2018-03-27T05:08:05.184Z,18.27
2018-03-27T05:10:33.716Z,14.83
2018-03-27T05:13:02.205Z,21.73
2018-03-27T05:15:30.655Z,17.83
2018-03-27T05:17:59.210Z,16.17
2018-03-27T05:20:27.700Z,13.97
2018-03-27T05:22:56.280Z,18.30
2018-03-27T05:25:24.687Z,11.30
2018-03-27T05:27:53.190Z,38.53
2018-03-27T05:30:21.704Z,38.50
2018-03-27T05:32:50.180Z,12.37
2018-03-27T05:35:18.667Z,9.87
2018-03-27T05:37:47.113Z,67.33
2018-03-27T05:40:15.557Z,16.73
2018-03-27T05:42:43.977Z,94.00
2018-03-27T05:45:12.528Z,26.83
2018-03-27T05:47:41.058Z,12.57
2018-03-27T05:50:09.533Z,13.30
2018-03-27T05:52:37.975Z,9.17
2018-03-27T05:55:06.544Z,13.93
2018-03-27T05:57:35.054Z,7.93
2018-03-27T06:00:03.616Z,8.93
2018-03-27T06:02:32.105Z,11.90
2018-03-27T06:05:00.545Z,9.10
2018-03-27T06:07:29.030Z,12.17
2018-03-27T06:09:57.512Z,13.33
2018-03-27T06:12:25.946Z,9.33
2018-03-27T06:14:54.397Z,10.10
2018-03-27T06:17:22.839Z,9.27
2018-03-27T06:19:51.287Z,11.50
2018-03-27T06:22:19.728Z,12.83
2018-03-27T06:24:48.201Z,12.10
2018-03-27T06:27:16.640Z,5.63
2018-03-27T06:29:45.110Z,7.43
2018-03-27T06:32:13.572Z,5.30
2018-03-27T06:34:42.002Z,6.07
2018-03-27T06:37:10.425Z,8.50
2018-03-27T06:39:38.944Z,8.00
2018-03-27T06:42:07.459Z,6.97
2018-03-27T06:44:35.852Z,8.10
2018-03-27T06:47:04.329Z,9.40
2018-03-27T06:49:32.749Z,3.87
2018-03-27T06:52:01.181Z,6.10
2018-03-27T06:54:29.641Z,6.80
2018-03-27T06:56:58.041Z,4.70
2018-03-27T06:59:26.474Z,5.93
2018-03-27T07:01:54.938Z,5.63
2018-03-27T07:04:23.406Z,4.97
2018-03-27T07:06:51.866Z,5.63
2018-03-27T07:09:20.345Z,6.07
2018-03-27T07:11:48.796Z,4.60
2018-03-27T07:14:17.249Z,6.43
2018-03-27T07:16:45.827Z,6.13
2018-03-27T07:19:14.297Z,8.57
2018-03-27T07:21:42.754Z,5.97
2018-03-27T07:24:11.216Z,9.70
2018-03-27T07:26:39.712Z,9.33
2018-03-27T07:29:08.105Z,7.97
2018-03-27T07:31:36.505Z,6.87
2018-03-27T07:34:04.964Z,7.53
2018-03-27T07:36:33.416Z,7.07
2018-03-27T07:39:01.904Z,7.30
2018-03-27T07:41:30.428Z,7.50
2018-03-27T07:43:58.851Z,4.90
2018-03-27T07:46:27.241Z,7.97
2018-03-27T07:48:55.740Z,8.77
2018-03-27T07:51:24.186Z,7.50
2018-03-27T07:53:52.704Z,7.93
2018-03-27T07:56:21.172Z,6.17
2018-03-27T07:58:49.777Z,5.73
2018-03-27T08:01:18.222Z,6.13
2018-03-27T08:03:46.648Z,7.17
2018-03-27T08:06:15.224Z,11.43
2018-03-27T08:08:43.657Z,9.13
2018-03-27T08:11:12.061Z,12.67
2018-03-27T08:13:40.636Z,18.67
2018-03-27T08:16:09.105Z,10.03
2018-03-27T08:18:37.569Z,11.23
2018-03-27T08:21:06.024Z,10.80
2018-03-27T08:23:34.460Z,13.43
2018-03-27T08:26:02.921Z,18.63
2018-03-27T08:28:31.349Z,16.07
2018-03-27T08:30:59.811Z,14.17
2018-03-27T08:33:28.398Z,11.60
2018-03-27T08:35:56.823Z,7.83
2018-03-27T08:38:25.248Z,6.83
2018-03-27T08:40:53.701Z,8.30
2018-03-27T08:43:22.193Z,13.77
2018-03-27T08:45:50.681Z,9.80
2018-03-27T08:48:19.129Z,10.80
2018-03-27T08:50:47.582Z,4.67
2018-03-27T08:53:15.992Z,4.00
2018-03-27T08:55:44.461Z,7.80
2018-03-27T08:58:12.919Z,2.63
2018-03-27T09:00:41.361Z,6.13
2018-03-27T09:03:09.842Z,6.00
2018-03-27T09:05:38.242Z,6.20
2018-03-27T09:08:06.764Z,4.43
2018-03-27T09:10:35.232Z,5.47
2018-03-27T09:13:03.666Z,3.23
2018-03-27T09:15:32.160Z,2.93
2018-03-27T09:18:00.608Z,2.90
2018-03-27T09:20:29.020Z,2.53
2018-03-27T09:22:57.481Z,4.53
2018-03-27T09:25:25.969Z,4.13
2018-03-27T09:27:54.414Z,3.10
2018-03-27T09:30:22.827Z,3.53
2018-03-27T09:32:51.274Z,4.30
2018-03-27T09:35:19.694Z,4.13
2018-03-27T09:37:48.165Z,5.17
2018-03-27T09:40:16.697Z,4.87
2018-03-27T09:42:45.096Z,4.80
2018-03-27T09:45:13.687Z,4.90
2018-03-27T09:47:42.141Z,5.67
2018-03-27T09:50:10.613Z,3.63
2018-03-27T09:52:39.037Z,4.30
2018-03-27T09:55:07.443Z,5.10
2018-03-27T09:57:35.932Z,4.77
2018-03-27T10:00:04.427Z,4.63
2018-03-27T10:02:32.991Z,5.13
2018-03-27T10:05:01.407Z,4.50
2018-03-27T10:07:29.852Z,4.50
2018-03-27T10:09:58.556Z,5.17
2018-03-27T10:12:26.955Z,6.70
2018-03-27T10:14:55.388Z,4.87
2018-03-27T10:17:23.829Z,6.37
2018-03-27T10:19:52.280Z,3.63
2018-03-27T10:22:20.704Z,4.23
2018-03-27T10:24:49.201Z,4.23
2018-03-27T10:27:17.762Z,3.60
2018-03-27T10:29:46.192Z,4.57
2018-03-27T10:32:14.789Z,3.90
2018-03-27T10:34:43.311Z,3.97
2018-03-27T10:37:11.714Z,4.70
2018-03-27T10:39:40.207Z,5.13
2018-03-27T10:42:08.680Z,4.97
2018-03-27T10:44:37.140Z,4.90
2018-03-27T10:47:05.598Z,7.13
2018-03-27T10:49:35.024Z,7.17
2018-03-27T10:52:03.502Z,7.57
2018-03-27T10:54:31.918Z,8.57
2018-03-27T10:57:00.361Z,8.93
2018-03-27T10:59:28.816Z,9.40
2018-03-27T11:01:57.289Z,9.43
2018-03-27T11:04:25.713Z,8.93
2018-03-27T11:06:54.140Z,12.70
2018-03-27T11:09:22.647Z,11.80
2018-03-27T11:11:51.077Z,12.40
2018-03-27T11:14:19.508Z,14.90
2018-03-27T11:16:47.966Z,13.13
2018-03-27T11:19:16.421Z,13.50
2018-03-27T11:21:44.917Z,13.40
2018-03-27T11:24:13.377Z,16.37
2018-03-27T11:26:41.862Z,13.50
2018-03-27T11:29:10.368Z,13.73
2018-03-27T11:31:38.855Z,14.20
2018-03-27T11:34:07.332Z,17.03
2018-03-27T11:36:35.805Z,15.83
2018-03-27T11:39:04.306Z,15.40
2018-03-27T11:41:32.720Z,14.90
2018-03-27T11:44:01.235Z,14.77
2018-03-27T11:46:29.668Z,14.47
2018-03-27T11:48:58.112Z,15.87
2018-03-27T11:51:26.624Z,14.57
2018-03-27T11:53:55.114Z,14.40
2018-03-27T11:56:23.675Z,16.37
2018-03-27T11:58:52.161Z,13.70
2018-03-27T12:01:20.697Z,14.30
2018-03-27T12:03:49.166Z,13.47
2018-03-27T12:06:17.685Z,14.13
2018-03-27T12:08:46.147Z,16.40
2018-03-27T12:11:14.595Z,12.97
2018-03-27T12:13:43.062Z,13.67
2018-03-27T12:16:11.878Z,13.97
2018-03-27T12:18:40.396Z,16.33
2018-03-27T12:21:08.860Z,16.70
2018-03-27T12:23:37.341Z,15.70
2018-03-27T12:26:05.780Z,14.90
2018-03-27T12:28:34.333Z,15.83
2018-03-27T12:31:02.794Z,14.53
2018-03-27T12:33:33.805Z,15.97
2018-03-27T12:36:02.247Z,17.87
2018-03-27T12:38:31.859Z,16.13
2018-03-27T12:41:00.989Z,17.87
2018-03-27T12:43:29.427Z,20.07
2018-03-27T12:45:57.836Z,23.83
2018-03-27T12:48:26.365Z,21.20
2018-03-27T12:50:54.789Z,22.27
2018-03-27T12:53:23.240Z,24.83
2018-03-27T12:55:51.804Z,23.20
2018-03-27T12:58:20.201Z,23.00
2018-03-27T13:00:48.648Z,22.97
2018-03-27T13:03:17.171Z,29.53
2018-03-27T13:05:45.676Z,29.03
2018-03-27T13:08:14.038Z,26.70
2018-03-27T13:10:42.510Z,28.63
2018-03-27T13:13:10.979Z,21.57
2018-03-27T13:15:39.513Z,26.90
2018-03-27T13:18:07.912Z,23.03
2018-03-27T13:20:36.322Z,25.13
2018-03-27T13:23:04.769Z,28.20
2018-03-27T13:25:33.220Z,23.47
2018-03-27T13:28:01.688Z,21.93
2018-03-27T13:30:30.110Z,19.77
2018-03-27T13:32:58.551Z,24.17
2018-03-27T13:35:27.026Z,26.20
2018-03-27T13:37:55.461Z,19.80
2018-03-27T13:40:24.493Z,23.67
2018-03-27T13:42:52.948Z,24.10
2018-03-27T13:45:21.402Z,22.50
2018-03-27T13:47:49.896Z,27.13
2018-03-27T13:50:19.415Z,23.53
2018-03-27T13:52:48.112Z,22.60
2018-03-27T13:55:16.545Z,24.00
2018-03-27T13:57:45.824Z,25.80
2018-03-27T14:00:15.389Z,19.63
2018-03-27T14:02:44.890Z,22.17
2018-03-27T14:05:15.267Z,24.33
2018-03-27T14:07:43.689Z,22.90
2018-03-27T14:10:12.763Z,22.27
2018-03-27T14:12:41.293Z,21.73
2018-03-27T14:15:09.720Z,21.80
2018-03-27T14:17:38.412Z,23.50
2018-03-27T14:20:06.832Z,25.93
2018-03-27T14:22:35.222Z,19.03
2018-03-27T14:25:03.688Z,21.53
2018-03-27T14:27:32.205Z,20.07
2018-03-27T14:30:00.812Z,21.00
2018-03-27T14:32:29.229Z,19.83
2018-03-27T14:34:57.673Z,21.97
2018-03-27T14:37:26.141Z,24.77
2018-03-27T14:39:54.559Z,20.53
2018-03-27T14:42:23.005Z,18.23
2018-03-27T14:44:51.457Z,18.03
2018-03-27T14:47:19.884Z,19.23
2018-03-27T14:49:48.327Z,17.70
2018-03-27T14:52:16.945Z,22.60
2018-03-27T14:54:45.477Z,25.93
2018-03-27T14:57:13.886Z,19.13
2018-03-27T14:59:42.351Z,20.40
2018-03-27T15:02:10.837Z,25.07
2018-03-27T15:04:39.304Z,27.90
2018-03-27T15:07:07.764Z,24.67
2018-03-27T15:09:36.357Z,21.80
2018-03-27T15:12:05.022Z,22.17
2018-03-27T15:14:33.584Z,21.27
2018-03-27T15:17:02.144Z,25.63
2018-03-27T15:19:30.596Z,23.20
2018-03-27T15:21:59.103Z,23.03
2018-03-27T15:24:27.555Z,22.30
2018-03-27T15:26:56.024Z,24.00
2018-03-27T15:29:24.435Z,24.47
2018-03-27T15:31:52.866Z,26.37
2018-03-27T15:34:21.261Z,31.43
2018-03-27T15:36:49.704Z,32.67
2018-03-27T15:39:18.136Z,27.77
2018-03-27T15:41:46.579Z,22.90
2018-03-27T15:44:14.984Z,31.40
2018-03-27T15:46:43.640Z,35.23
2018-03-27T15:49:12.123Z,23.07
2018-03-27T15:51:40.537Z,31.67
2018-03-27T15:54:09.048Z,27.70
2018-03-27T15:56:37.472Z,30.70
2018-03-27T15:59:05.916Z,32.27
2018-03-27T16:01:34.421Z,34.40
2018-03-27T16:04:02.884Z,32.47
2018-03-27T16:06:31.360Z,33.57
2018-03-27T16:08:59.820Z,35.93
2018-03-27T16:11:28.227Z,32.20
2018-03-27T16:13:56.662Z,31.73
2018-03-27T16:16:25.105Z,31.47
2018-03-27T16:18:53.596Z,30.23
2018-03-27T16:21:22.046Z,30.37
2018-03-27T16:23:50.455Z,29.33
2018-03-27T16:26:18.937Z,32.57
2018-03-27T16:28:47.397Z,31.73
2018-03-27T16:31:15.908Z,30.13
2018-03-27T16:33:44.337Z,33.57
2018-03-27T16:36:12.797Z,34.30
2018-03-27T16:38:41.235Z,34.33
2018-03-27T16:41:09.653Z,29.00
2018-03-27T16:43:38.050Z,26.67
2018-03-27T16:46:06.496Z,35.37
2018-03-27T16:48:34.973Z,31.63
2018-03-27T16:51:03.421Z,30.83
2018-03-27T16:53:31.916Z,36.77
2018-03-27T16:56:00.310Z,36.63
2018-03-27T16:58:28.745Z,35.83
2018-03-27T17:00:57.156Z,38.43
2018-03-27T17:03:25.583Z,28.83
2018-03-27T17:05:54.001Z,29.43
2018-03-27T17:08:22.449Z,30.97
2018-03-27T17:10:50.848Z,32.93
2018-03-27T17:13:19.281Z,27.60
2018-03-27T17:15:47.693Z,27.50
2018-03-27T17:18:16.165Z,31.83
2018-03-27T17:20:44.599Z,37.90
2018-03-27T17:23:13.000Z,30.97
2018-03-27T17:25:41.547Z,33.63
2018-03-27T17:28:09.989Z,29.27
2018-03-27T17:30:38.399Z,30.73
2018-03-27T17:33:06.860Z,28.60
2018-03-27T17:35:35.340Z,29.37
2018-03-27T17:38:03.793Z,38.40
2018-03-27T17:40:32.248Z,27.93
2018-03-27T17:43:00.686Z,33.50
2018-03-27T17:45:29.141Z,29.90
2018-03-27T17:47:57.564Z,27.63
2018-03-27T17:50:25.984Z,31.43
2018-03-27T17:52:54.413Z,36.30
2018-03-27T17:55:22.852Z,34.63
2018-03-27T17:57:51.293Z,32.63
2018-03-27T18:00:19.720Z,34.97
2018-03-27T18:02:48.165Z,31.53
2018-03-27T18:05:16.585Z,42.53
2018-03-27T18:07:45.021Z,40.67
2018-03-27T18:10:13.429Z,38.40
2018-03-27T18:12:41.945Z,30.23
2018-03-27T18:15:10.386Z,34.43
2018-03-27T18:17:38.794Z,26.90
2018-03-27T18:20:07.209Z,29.93
2018-03-27T18:22:35.679Z,28.67
2018-03-27T18:25:04.166Z,36.07
2018-03-27T18:27:32.576Z,36.70
2018-03-27T18:30:01.026Z,28.77
2018-03-27T18:32:29.423Z,31.80
2018-03-27T18:34:57.897Z,35.03
2018-03-27T18:37:26.385Z,32.17
2018-03-27T18:39:54.764Z,33.77
2018-03-27T18:42:23.237Z,33.67
2018-03-27T18:44:51.624Z,32.90
2018-03-27T18:47:20.033Z,31.77
2018-03-27T18:49:48.506Z,32.10
2018-03-27T18:52:16.923Z,33.93
2018-03-27T18:54:45.373Z,29.37
2018-03-27T18:57:13.828Z,31.93
2018-03-27T18:59:42.312Z,34.50
2018-03-27T19:02:10.737Z,34.57
2018-03-27T19:04:39.221Z,32.43
2018-03-27T19:07:07.633Z,33.93
2018-03-27T19:09:36.048Z,30.23
2018-03-27T19:12:04.527Z,24.80
2018-03-27T19:14:32.929Z,28.60
2018-03-27T19:17:01.405Z,28.10
2018-03-27T19:19:29.846Z,25.93
2018-03-27T19:21:58.269Z,31.70
2018-03-27T19:24:26.746Z,33.43
2018-03-27T19:26:55.193Z,33.03
2018-03-27T19:29:23.637Z,26.17
2018-03-27T19:31:52.068Z,25.47
2018-03-27T19:34:20.512Z,20.73
2018-03-27T19:36:48.925Z,30.50
2018-03-27T19:39:17.432Z,22.13
2018-03-27T19:41:45.881Z,23.43
2018-03-27T19:44:14.378Z,24.77
2018-03-27T19:46:42.766Z,21.20
2018-03-27T19:49:11.157Z,21.07
2018-03-27T19:51:39.647Z,22.10
2018-03-27T19:54:08.119Z,29.37
2018-03-27T19:56:36.524Z,32.93
2018-03-27T19:59:05.047Z,31.00
2018-03-27T20:01:33.426Z,28.80
2018-03-27T20:04:01.837Z,28.57
2018-03-27T20:06:30.272Z,24.77
2018-03-27T20:08:58.758Z,28.60
2018-03-27T20:11:27.174Z,31.13
2018-03-27T20:13:55.569Z,29.10
2018-03-27T20:16:24.035Z,21.50
2018-03-27T20:18:52.441Z,22.13
2018-03-27T20:21:20.874Z,22.77
2018-03-27T20:23:49.331Z,23.70
2018-03-27T20:26:17.792Z,38.80
2018-03-27T20:28:46.252Z,35.80
2018-03-27T20:31:14.653Z,31.37
2018-03-27T20:33:43.083Z,25.03
2018-03-27T20:36:11.580Z,25.30
2018-03-27T20:38:40.035Z,28.27
2018-03-27T20:41:08.420Z,25.87
2018-03-27T20:43:36.866Z,25.67
2018-03-27T20:46:05.323Z,21.70
2018-03-27T20:48:33.730Z,20.50
2018-03-27T20:51:02.165Z,24.27
2018-03-27T20:53:30.553Z,20.87
2018-03-27T20:55:58.992Z,25.93
2018-03-27T20:58:27.403Z,23.17
2018-03-27T21:00:55.937Z,22.63
2018-03-27T21:03:24.352Z,25.50
2018-03-27T21:05:52.741Z,25.50
2018-03-27T21:08:21.213Z,25.10
2018-03-27T21:10:49.624Z,21.63
2018-03-27T21:13:18.093Z,21.00
2018-03-27T21:15:46.493Z,18.43
2018-03-27T21:18:14.931Z,22.00
2018-03-27T21:20:43.361Z,27.87
2018-03-27T21:23:11.782Z,26.50
2018-03-27T21:25:40.221Z,25.07
2018-03-27T21:28:08.623Z,27.27
2018-03-27T21:30:37.080Z,26.47
2018-03-27T21:33:05.488Z,25.60
2018-03-27T21:35:33.933Z,22.03
2018-03-27T21:38:02.349Z,21.67
2018-03-27T21:40:30.772Z,28.90
2018-03-27T21:42:59.206Z,20.43
2018-03-27T21:45:27.602Z,20.53
2018-03-27T21:47:56.038Z,20.93
2018-03-27T21:50:24.432Z,20.57
2018-03-27T21:52:52.849Z,23.97
2018-03-27T21:55:21.245Z,25.17
2018-03-27T21:57:49.680Z,24.30
2018-03-27T22:00:18.148Z,23.13
2018-03-27T22:02:46.649Z,23.00
2018-03-27T22:05:15.112Z,22.50
2018-03-27T22:07:43.606Z,30.80
2018-03-27T22:10:12.001Z,38.17
2018-03-27T22:12:40.397Z,38.07
2018-03-27T22:15:08.834Z,34.07
2018-03-27T22:17:37.239Z,35.03
2018-03-27T22:20:05.696Z,30.60
2018-03-27T22:22:34.145Z,35.40
2018-03-27T22:25:02.554Z,34.97
2018-03-27T22:27:30.973Z,31.73
2018-03-27T22:29:59.383Z,34.13
2018-03-27T22:32:27.817Z,35.07
2018-03-27T22:34:56.280Z,26.07
2018-03-27T22:37:24.702Z,25.60
2018-03-27T22:39:53.159Z,30.67
2018-03-27T22:42:21.595Z,34.20
2018-03-27T22:44:50.012Z,28.07
2018-03-27T22:47:18.469Z,33.43
2018-03-27T22:49:46.915Z,30.67
2018-03-27T22:52:15.383Z,29.10
2018-03-27T22:54:43.896Z,30.60
2018-03-27T22:57:12.334Z,29.97
2018-03-27T22:59:40.739Z,39.80
2018-03-27T23:02:09.196Z,27.77
2018-03-27T23:04:37.604Z,28.70
2018-03-27T23:07:06.021Z,28.37
2018-03-27T23:09:34.435Z,25.80
2018-03-27T23:12:02.892Z,28.23
2018-03-27T23:14:31.309Z,27.53
2018-03-27T23:16:59.736Z,27.30
2018-03-27T23:19:28.165Z,28.03
2018-03-27T23:21:56.576Z,25.07
2018-03-27T23:24:25.065Z,26.30
2018-03-27T23:26:53.520Z,27.93
2018-03-27T23:29:21.961Z,28.10
2018-03-27T23:31:50.417Z,24.60
2018-03-27T23:34:18.835Z,24.23
2018-03-27T23:36:47.258Z,34.30
2018-03-27T23:39:15.706Z,27.23
2018-03-27T23:41:44.194Z,27.07
2018-03-27T23:44:12.598Z,28.23
2018-03-27T23:46:41.006Z,23.13
2018-03-27T23:49:09.432Z,23.20
2018-03-27T23:51:37.858Z,23.13
2018-03-27T23:54:06.276Z,22.47
2018-03-27T23:56:34.884Z,23.17
2018-03-27T23:59:03.344Z,19.97
